Back to Top

Language: 

Current Local METAR Station Weather Reports...

Local METAR Reports

Local METAR Reports

 

EGCN - Doncaster Sheffield Airport, United Kingdom
Distance from station: E 20mi, 32km
Updated: Sat, 18-Nov-2017 5:50am GMT
Mostly Cloudy
Mostly Cloudy
 Wind from WSW
Wind: WSW 14 mph , 22 km/h
Temperature: 9°C
Wind Chill: 6°C
Dew Point: 5°C
Humidity: 76%
Barometer: 1020 hPa
Clouds: Mostly Cloudy
Visibility: 6 miles , 10 km
Cloud details: Few Clouds 579 m
Partly Cloudy 1250 m
Mostly Cloudy 1463 m
2017/11/18 05:50 EGCN 180550Z 25012KT 9999 FEW019 SCT041 BKN048 09/05 Q1020
EGNM - Leeds Bradford International, United Kingdom
Distance from station: NNW 24mi, 39km
Updated: Sat, 18-Nov-2017 5:50am GMT
Partly Cloudy
Partly Cloudy
 Wind from W
Wind: W 15 mph , 24 km/h, Gust: 26 mph , 43 km/h
Temperature: 7°C
Wind Chill: 3°C
Dew Point: 4°C
Humidity: 81%
Barometer: 1018 hPa
Clouds: Partly Cloudy
Visibility: 6 miles , 10 km
Cloud details: Few Clouds 640 m
Partly Cloudy 1311 m
2017/11/18 05:50 EGNM 180550Z 26013G23KT 190V280 9999 FEW021 SCT043 07/04 Q1018
 
EGCC - Manchester International, United Kingdom
Distance from station: WSW 35mi, 56km
Updated: Sat, 18-Nov-2017 5:50am GMT
Mostly Cloudy
Mostly Cloudy
 Wind from SW
Wind: SW 8 mph , 13 km/h
Temperature: 6°C
Wind Chill: 3°C
Dew Point: 4°C
Humidity: 87%
Barometer: 1021 hPa
Clouds: Mostly Cloudy
Visibility: 6 miles , 10 km
Cloud details: Mostly Cloudy 1311 m
2017/11/18 05:50 EGCC 180550Z AUTO 22007KT 9999 BKN043 06/04 Q1021 NOSIG
EGXU - Linton-On-Ouse RAF, United Kingdom
Distance from station: NNE 37mi, 60km
Updated: Sat, 18-Nov-2017 5:50am GMT
Few Clouds
Few Clouds
 Wind from W
Wind: W 12 mph , 19 km/h
Temperature: 8°C
Wind Chill: 4°C
Dew Point: 4°C
Humidity: 76%
Barometer: 1018 hPa
Clouds: Few Clouds
Visibility: 6 miles , 10 km
Cloud details: Few Clouds 1524 m
2017/11/18 05:50 EGXU 180550Z AUTO 27010KT 9999 // FEW050/// 08/04 Q1018
 
EGXP - Scampton RAF, United Kingdom
Distance from station: ESE 41mi, 66km
Updated: Sat, 18-Nov-2017 5:50am GMT
Few Clouds
Few Clouds
 Wind from SW
Wind: SW 12 mph , 19 km/h
Temperature: 3°C
Wind Chill: -2°C
Dew Point: 2°C
Humidity: 93%
Barometer: 1019 hPa
Clouds: Few Clouds
Visibility: 6 miles , 10 km
Cloud details: Few Clouds 1311 m
2017/11/18 05:50 EGXP 180550Z AUTO 23010KT 9999 // FEW043/// 03/02 Q1019
EGNJ - Humberside Airport, United Kingdom
Distance from station: E 46mi, 74km
Updated: Sat, 18-Nov-2017 5:20am GMT
Few Clouds
Few Clouds
 Wind from SW
Wind: SW 8 mph , 13 km/h
Temperature: 4°C
Wind Chill: 1°C
Dew Point: 3°C
Humidity: 93%
Barometer: 1019 hPa
Clouds: Few Clouds
Visibility: 6 miles , 10 km
Cloud details: Few Clouds 1341 m
2017/11/18 05:20 EGNJ 180520Z AUTO 23007KT 9999 FEW044/// 04/03 Q1019
 
EGXW - Waddington RAF, United Kingdom
Distance from station: ESE 46mi, 74km
Updated: Sat, 18-Nov-2017 5:50am GMT
Few Clouds
Few Clouds
 Wind from WSW
Wind: WSW 13 mph , 20 km/h
Temperature: 4°C
Wind Chill: -1°C
Dew Point: 2°C
Humidity: 87%
Barometer: 1020 hPa
Clouds: Few Clouds
Visibility: 6 miles , 10 km
Cloud details: Few Clouds 1219 m
2017/11/18 05:50 EGXW 180550Z 24011KT 9999 FEW040 04/02 Q1020 BLU
EGXZ - Topcliffe RAF, United Kingdom
Distance from station: N 46mi, 75km
Updated: Sat, 18-Nov-2017 5:50am GMT
Partly Cloudy
Partly Cloudy
 Wind from W
Wind: W 12 mph , 19 km/h
Temperature: 7°C
Wind Chill: 4°C
Dew Point: 4°C
Humidity: 81%
Barometer: 1018 hPa
Clouds: Partly Cloudy
Visibility: 6 miles , 10 km
Cloud details: Few Clouds 1219 m
Partly Cloudy 1433 m
2017/11/18 05:50 EGXZ 180550Z AUTO 27010KT 9999 FEW040/// SCT047/// 07/04 Q1018
 
EGXV - Leconfield, United Kingdom
Distance from station: ENE 48mi, 77km
Updated: Sat, 18-Nov-2017 5:50am GMT
Clear
Clear
 Wind from W
Wind: W 12 mph , 19 km/h
Temperature: 6°C
Wind Chill: 3°C
Dew Point: 4°C
Humidity: 87%
Barometer: 1018 hPa
Clouds: Clear
Visibility: 6 miles , 10 km
2017/11/18 05:50 EGXV 180550Z AUTO 26010KT 9999 NCD 06/04 Q1018 RERA
EGNX - East Midlands, United Kingdom
Distance from station: S 50mi, 80km
Updated: Sat, 18-Nov-2017 5:50am GMT
Mostly Cloudy
Mostly Cloudy
 Wind from WSW
Wind: WSW 15 mph , 24 km/h
Temperature: 5°C
Wind Chill: 1°C
Dew Point: 3°C
Humidity: 87%
Barometer: 1021 hPa
Clouds: Mostly Cloudy
Visibility: 6 miles , 10 km
Cloud details: Mostly Cloudy 1189 m
2017/11/18 05:50 EGNX 180550Z 24013KT 9999 BKN039 05/03 Q1021

Metar display script from Saratoga-Weather.org

Data updates at regular intervals.